createdAt,value
2023-11-15T00:01:13.662Z,12.21
2023-11-15T00:03:40.666Z,12.10
2023-11-15T00:06:08.299Z,12.20
2023-11-15T00:08:35.376Z,12.10
2023-11-15T00:11:05.208Z,12.19
2023-11-15T00:13:32.158Z,12.14
2023-11-15T00:15:59.200Z,12.16
2023-11-15T00:18:26.284Z,12.12
2023-11-15T00:20:53.338Z,12.09
2023-11-15T00:23:20.178Z,12.12
2023-11-15T00:25:47.025Z,12.15
2023-11-15T00:28:14.317Z,12.20
2023-11-15T00:30:41.190Z,12.21
2023-11-15T00:33:08.732Z,12.13
2023-11-15T00:35:35.710Z,12.16
2023-11-15T00:38:04.804Z,12.20
2023-11-15T00:40:31.718Z,12.13
2023-11-15T00:42:58.679Z,12.31
2023-11-15T00:45:25.648Z,12.18
2023-11-15T00:47:52.866Z,12.22
2023-11-15T00:50:19.963Z,12.25
2023-11-15T00:52:47.029Z,12.21
2023-11-15T00:55:14.089Z,12.30
2023-11-15T00:57:41.333Z,12.29
2023-11-15T01:00:24.591Z,12.18
2023-11-15T01:02:52.706Z,12.11
2023-11-15T01:05:19.797Z,12.18
2023-11-15T01:07:46.609Z,12.09
2023-11-15T01:10:13.996Z,12.15
2023-11-15T01:12:42.419Z,12.03
2023-11-15T01:15:09.984Z,11.94
2023-11-15T01:17:37.166Z,12.09
2023-11-15T01:20:04.878Z,12.13
2023-11-15T01:22:32.046Z,12.06
2023-11-15T01:24:59.511Z,12.02
2023-11-15T01:27:26.770Z,12.03
2023-11-15T01:29:54.379Z,12.04
2023-11-15T01:32:21.266Z,12.10
2023-11-15T01:34:48.219Z,12.10
2023-11-15T01:37:15.402Z,12.07
2023-11-15T01:39:43.306Z,12.05
2023-11-15T01:42:11.122Z,12.04
2023-11-15T01:44:38.723Z,12.04
2023-11-15T01:47:06.194Z,12.16
2023-11-15T01:49:33.370Z,12.20
2023-11-15T01:52:00.256Z,12.14
2023-11-15T01:54:29.455Z,12.03
2023-11-15T01:56:57.042Z,12.06
2023-11-15T01:59:24.293Z,12.06
2023-11-15T02:01:52.888Z,12.06
2023-11-15T02:04:20.590Z,12.07
2023-11-15T02:06:47.586Z,12.10
2023-11-15T02:09:15.806Z,12.16
2023-11-15T02:11:42.951Z,12.04
2023-11-15T02:14:11.081Z,12.05
2023-11-15T02:16:38.277Z,12.09
2023-11-15T02:19:05.512Z,12.07
2023-11-15T02:21:53.138Z,12.12
2023-11-15T02:24:20.186Z,12.11
2023-11-15T02:26:47.989Z,12.21
2023-11-15T02:29:14.780Z,12.28
2023-11-15T02:31:41.617Z,12.13
2023-11-15T02:34:08.434Z,12.24
2023-11-15T02:36:35.268Z,12.19
2023-11-15T02:39:02.518Z,12.25
2023-11-15T02:41:29.415Z,12.17
2023-11-15T02:43:56.936Z,12.18
2023-11-15T02:46:24.326Z,12.19
2023-11-15T02:48:52.141Z,12.23
2023-11-15T02:51:19.500Z,12.19
2023-11-15T02:53:46.529Z,12.21
2023-11-15T02:56:13.445Z,12.30
2023-11-15T02:58:40.267Z,12.23
2023-11-15T03:01:12.499Z,12.24
2023-11-15T03:03:41.051Z,12.22
2023-11-15T03:06:08.522Z,12.12
2023-11-15T03:08:37.270Z,12.24
2023-11-15T03:11:04.344Z,12.28
2023-11-15T03:13:31.155Z,12.22
2023-11-15T03:15:58.078Z,12.15
2023-11-15T03:18:25.115Z,12.23
2023-11-15T03:20:52.536Z,12.16
2023-11-15T03:23:20.973Z,12.10
2023-11-15T03:25:47.930Z,12.18
2023-11-15T03:28:14.778Z,12.30
2023-11-15T03:30:41.584Z,12.25
2023-11-15T03:33:08.630Z,12.35
2023-11-15T03:35:36.155Z,12.34
2023-11-15T03:38:03.261Z,12.20
2023-11-15T03:40:30.102Z,12.13
2023-11-15T03:42:56.911Z,12.18
2023-11-15T03:45:23.663Z,12.20
2023-11-15T03:47:51.674Z,12.22
2023-11-15T03:50:21.926Z,12.19
2023-11-15T03:52:48.895Z,12.07
2023-11-15T03:55:15.933Z,12.09
2023-11-15T03:57:43.951Z,12.09
2023-11-15T04:00:11.812Z,12.21
2023-11-15T04:02:41.990Z,12.22
2023-11-15T04:05:10.759Z,12.19
2023-11-15T04:07:38.581Z,12.08
2023-11-15T04:10:06.833Z,12.21
2023-11-15T04:12:34.590Z,12.08
2023-11-15T04:15:01.782Z,12.04
2023-11-15T04:17:31.610Z,12.11
2023-11-15T04:19:58.502Z,12.06
2023-11-15T04:22:25.400Z,11.96
2023-11-15T04:24:53.786Z,11.98
2023-11-15T04:27:20.613Z,11.98
2023-11-15T04:29:47.613Z,12.09
2023-11-15T04:32:14.746Z,12.15
2023-11-15T04:34:41.476Z,12.15
2023-11-15T04:37:10.524Z,12.01
2023-11-15T04:39:37.422Z,12.03
2023-11-15T04:42:05.311Z,11.93
2023-11-15T04:44:32.224Z,12.00
2023-11-15T04:46:59.181Z,11.92
2023-11-15T04:49:26.086Z,11.79
2023-11-15T04:51:52.939Z,11.82
2023-11-15T04:54:20.045Z,11.88
2023-11-15T04:56:47.077Z,11.85
2023-11-15T04:59:14.042Z,11.78
2023-11-15T05:01:42.992Z,11.75
2023-11-15T05:04:10.100Z,11.80
2023-11-15T05:06:36.968Z,11.85
2023-11-15T05:09:04.361Z,11.67
2023-11-15T05:11:31.168Z,11.70
2023-11-15T05:13:58.105Z,11.78
2023-11-15T05:16:25.336Z,11.78
2023-11-15T05:18:52.407Z,11.64
2023-11-15T05:21:19.716Z,11.78
2023-11-15T05:23:46.583Z,11.79
2023-11-15T05:26:13.401Z,11.74
2023-11-15T05:28:40.404Z,11.77
2023-11-15T05:31:07.167Z,11.76
2023-11-15T05:33:34.062Z,11.79
2023-11-15T05:36:00.878Z,11.78
2023-11-15T05:38:29.040Z,11.73
2023-11-15T05:40:56.112Z,11.64
2023-11-15T05:43:23.315Z,11.75
2023-11-15T05:45:50.494Z,11.76
2023-11-15T05:48:17.346Z,11.76
2023-11-15T05:50:44.302Z,11.51
2023-11-15T05:53:11.611Z,11.64
2023-11-15T05:55:41.905Z,11.71
2023-11-15T05:58:08.902Z,11.73
2023-11-15T06:00:35.579Z,11.81
2023-11-15T06:03:02.629Z,11.75
2023-11-15T06:05:30.884Z,11.74
2023-11-15T06:07:57.669Z,11.85
2023-11-15T06:10:28.094Z,11.86
2023-11-15T06:12:57.933Z,11.98
2023-11-15T06:15:25.464Z,11.85
2023-11-15T06:17:53.295Z,11.78
2023-11-15T06:20:20.304Z,11.81
2023-11-15T06:22:48.059Z,11.71
2023-11-15T06:25:20.345Z,11.95
2023-11-15T06:27:47.834Z,12.01
2023-11-15T06:30:15.089Z,11.93
2023-11-15T06:32:42.151Z,11.91
2023-11-15T06:35:10.082Z,11.80
2023-11-15T06:37:37.303Z,11.79
2023-11-15T06:40:09.288Z,11.71
2023-11-15T06:42:37.130Z,11.71
2023-11-15T06:45:05.116Z,11.66
2023-11-15T06:47:36.808Z,11.69
2023-11-15T06:50:13.933Z,11.55
2023-11-15T06:52:44.024Z,11.72
2023-11-15T06:55:11.912Z,11.64
2023-11-15T06:57:42.884Z,11.69
2023-11-15T07:00:12.827Z,11.75
2023-11-15T07:02:43.025Z,11.74
2023-11-15T07:05:12.124Z,11.68
2023-11-15T07:07:39.545Z,11.69
2023-11-15T07:10:07.764Z,11.57
2023-11-15T07:12:37.802Z,11.72
2023-11-15T07:15:05.642Z,11.77
2023-11-15T07:17:33.257Z,11.74
2023-11-15T07:20:00.617Z,11.67
2023-11-15T07:22:27.560Z,11.69
2023-11-15T07:24:54.689Z,11.70
2023-11-15T07:27:25.284Z,11.80
2023-11-15T07:29:53.305Z,11.80
2023-11-15T07:32:20.257Z,11.84
2023-11-15T07:34:47.252Z,11.80
2023-11-15T07:37:14.212Z,11.67
2023-11-15T07:39:42.268Z,11.78
2023-11-15T07:42:09.229Z,11.82
2023-11-15T07:44:37.309Z,11.91
2023-11-15T07:47:07.671Z,12.02
2023-11-15T07:49:34.999Z,12.19
2023-11-15T07:52:01.938Z,12.18
2023-11-15T07:54:28.941Z,12.14
2023-11-15T07:56:58.375Z,12.22
2023-11-15T07:59:26.352Z,12.27
2023-11-15T08:01:53.915Z,12.09
2023-11-15T08:04:22.524Z,12.03
2023-11-15T08:06:50.297Z,12.05
2023-11-15T08:09:27.456Z,12.06
2023-11-15T08:11:58.061Z,12.09
2023-11-15T08:14:26.975Z,12.00
2023-11-15T08:16:55.806Z,11.94
2023-11-15T08:19:23.031Z,11.98
2023-11-15T08:21:50.222Z,11.99
2023-11-15T08:24:23.938Z,12.16
2023-11-15T08:26:54.389Z,12.47
2023-11-15T08:29:22.277Z,12.76
2023-11-15T08:31:50.446Z,13.02
2023-11-15T08:34:22.157Z,12.87
2023-11-15T08:36:50.417Z,12.82
2023-11-15T08:39:17.997Z,12.77
2023-11-15T08:41:48.054Z,12.89
2023-11-15T08:44:19.298Z,12.70
2023-11-15T08:46:46.790Z,12.79
2023-11-15T08:49:16.457Z,12.58
2023-11-15T08:51:46.230Z,12.78
2023-11-15T08:54:13.573Z,12.87
2023-11-15T08:56:43.476Z,12.67
2023-11-15T08:59:15.849Z,12.91
2023-11-15T09:01:45.598Z,12.82
2023-11-15T09:04:19.775Z,12.92
2023-11-15T09:06:49.906Z,12.73
2023-11-15T09:09:17.897Z,12.68
2023-11-15T09:11:46.089Z,12.61
2023-11-15T09:14:15.512Z,12.63
2023-11-15T09:16:43.118Z,12.78
2023-11-15T09:19:16.729Z,12.76
2023-11-15T09:21:44.086Z,12.76
2023-11-15T09:24:11.486Z,12.96
2023-11-15T09:26:39.854Z,13.19
2023-11-15T09:29:06.742Z,13.00
2023-11-15T09:31:35.344Z,13.05
2023-11-15T09:34:02.349Z,13.05
2023-11-15T09:36:30.070Z,13.07
2023-11-15T09:38:57.378Z,12.99
2023-11-15T09:41:25.883Z,13.16
2023-11-15T09:43:56.289Z,13.20
2023-11-15T09:46:23.364Z,13.08
2023-11-15T09:48:57.527Z,13.16
2023-11-15T09:51:35.485Z,13.17
2023-11-15T09:54:16.125Z,13.10
2023-11-15T09:56:47.199Z,13.13
2023-11-15T09:59:15.820Z,13.06
2023-11-15T10:01:49.572Z,13.17
2023-11-15T10:04:29.586Z,13.39
2023-11-15T10:07:05.837Z,13.39
2023-11-15T10:09:43.964Z,13.37
2023-11-15T10:12:11.745Z,13.30
2023-11-15T10:14:55.625Z,13.19
2023-11-15T10:17:39.916Z,13.40
2023-11-15T10:20:22.193Z,14.26
2023-11-15T10:22:52.188Z,14.78
2023-11-15T10:25:19.337Z,15.04
2023-11-15T10:27:48.065Z,15.01
2023-11-15T10:30:21.511Z,14.63
2023-11-15T10:32:50.965Z,13.94
2023-11-15T10:35:28.728Z,13.80
2023-11-15T10:37:57.071Z,13.68
2023-11-15T10:40:27.042Z,13.56
2023-11-15T10:42:56.238Z,13.59
2023-11-15T10:45:31.333Z,13.44
2023-11-15T10:48:02.880Z,13.31
2023-11-15T10:50:32.854Z,13.32
2023-11-15T10:53:02.505Z,13.19
2023-11-15T10:55:31.051Z,13.17
2023-11-15T10:58:03.485Z,13.26
2023-11-15T11:00:36.104Z,13.25
2023-11-15T11:03:03.302Z,13.10
2023-11-15T11:05:31.151Z,13.03
2023-11-15T11:08:15.596Z,13.05
2023-11-15T11:10:57.661Z,13.06
2023-11-15T11:13:24.986Z,13.05
2023-11-15T11:15:53.113Z,13.10
2023-11-15T11:18:20.845Z,13.01
2023-11-15T11:21:03.542Z,12.98
2023-11-15T11:23:34.809Z,12.83
2023-11-15T11:26:36.952Z,12.78
2023-11-15T11:29:05.087Z,12.62
2023-11-15T11:31:31.933Z,12.59
2023-11-15T11:34:15.960Z,12.63
2023-11-15T11:36:51.918Z,12.77
2023-11-15T11:39:41.095Z,12.68
2023-11-15T11:42:24.420Z,12.50
2023-11-15T11:44:55.774Z,12.29
2023-11-15T11:47:22.897Z,11.92
2023-11-15T11:49:50.229Z,11.53
2023-11-15T11:52:21.059Z,11.64
2023-11-15T11:54:54.404Z,11.79
2023-11-15T11:57:25.605Z,11.66
2023-11-15T12:00:02.446Z,11.64
2023-11-15T12:02:37.004Z,11.43
2023-11-15T12:05:06.615Z,11.57
2023-11-15T12:07:34.206Z,11.59
2023-11-15T12:10:07.437Z,11.71
2023-11-15T12:12:34.160Z,11.70
2023-11-15T12:15:01.083Z,11.69
2023-11-15T12:17:42.891Z,11.76
2023-11-15T12:20:11.894Z,11.71
2023-11-15T12:22:41.617Z,11.79
2023-11-15T12:25:09.757Z,11.97
2023-11-15T12:27:39.922Z,11.96
2023-11-15T12:30:08.676Z,12.01
2023-11-15T12:32:37.699Z,12.10
2023-11-15T12:35:10.254Z,11.89
2023-11-15T12:37:37.913Z,12.08
2023-11-15T12:40:21.515Z,12.29
2023-11-15T12:42:57.713Z,12.18
2023-11-15T12:45:35.230Z,12.34
2023-11-15T12:48:08.620Z,12.42
2023-11-15T12:50:39.940Z,12.28
2023-11-15T12:53:18.317Z,12.41
2023-11-15T12:55:54.486Z,12.37
2023-11-15T12:58:33.956Z,12.72
2023-11-15T13:01:03.750Z,12.73
2023-11-15T13:03:34.315Z,12.70
2023-11-15T13:06:12.323Z,12.67
2023-11-15T13:08:40.406Z,12.77
2023-11-15T13:11:07.282Z,12.76
2023-11-15T13:13:34.241Z,12.66
2023-11-15T13:16:01.044Z,12.71
2023-11-15T13:18:28.001Z,12.70
2023-11-15T13:20:58.932Z,12.56
2023-11-15T13:23:26.522Z,12.65
2023-11-15T13:25:54.834Z,12.68
2023-11-15T13:28:22.450Z,12.58
2023-11-15T13:30:49.472Z,12.79
2023-11-15T13:33:19.109Z,12.76
2023-11-15T13:35:46.807Z,12.91
2023-11-15T13:38:14.158Z,12.88
2023-11-15T13:40:46.116Z,12.85
2023-11-15T13:43:13.307Z,12.86
2023-11-15T13:45:40.115Z,12.88
2023-11-15T13:48:07.065Z,12.78
2023-11-15T13:50:33.920Z,12.87
2023-11-15T13:53:01.528Z,12.88
2023-11-15T13:55:29.132Z,12.78
2023-11-15T13:57:56.335Z,12.65
2023-11-15T14:00:29.369Z,12.73
2023-11-15T14:02:56.298Z,12.60
2023-11-15T14:05:23.265Z,12.65
2023-11-15T14:07:53.253Z,12.85
2023-11-15T14:10:20.423Z,12.97
2023-11-15T14:12:48.082Z,13.30
2023-11-15T14:15:20.072Z,13.40
2023-11-15T14:17:49.803Z,13.04
2023-11-15T14:20:21.034Z,13.08
2023-11-15T14:22:48.601Z,13.30
2023-11-15T14:25:22.399Z,13.21
2023-11-15T14:27:57.290Z,13.35
2023-11-15T14:30:25.485Z,13.27
2023-11-15T14:32:52.836Z,13.08
2023-11-15T14:35:20.320Z,13.03
2023-11-15T14:37:49.680Z,13.03
2023-11-15T14:40:23.892Z,12.99
2023-11-15T14:42:53.545Z,12.94
2023-11-15T14:45:21.016Z,12.86
2023-11-15T14:47:48.234Z,12.79
2023-11-15T14:50:16.533Z,12.90
2023-11-15T14:52:56.535Z,12.80
2023-11-15T14:55:32.714Z,12.76
2023-11-15T14:58:00.711Z,12.78
2023-11-15T15:00:28.068Z,12.74
2023-11-15T15:02:57.682Z,12.76
2023-11-15T15:05:25.277Z,12.64
2023-11-15T15:07:52.487Z,12.74
2023-11-15T15:10:20.966Z,12.73
2023-11-15T15:12:49.141Z,12.56
2023-11-15T15:15:19.116Z,12.45
2023-11-15T15:17:47.622Z,12.51
2023-11-15T15:20:20.114Z,12.52
2023-11-15T15:22:47.941Z,12.37
2023-11-15T15:25:15.915Z,12.30
2023-11-15T15:27:43.303Z,12.36
2023-11-15T15:30:14.746Z,12.41
2023-11-15T15:32:42.512Z,12.32
2023-11-15T15:35:13.240Z,12.21
2023-11-15T15:37:41.203Z,12.26
2023-11-15T15:40:15.481Z,12.19
2023-11-15T15:42:44.134Z,12.22
2023-11-15T15:45:12.578Z,12.22
2023-11-15T15:47:39.534Z,12.05
2023-11-15T15:50:06.870Z,12.06
2023-11-15T15:52:33.638Z,12.12
2023-11-15T15:55:00.718Z,11.95
2023-11-15T15:57:27.825Z,11.89
2023-11-15T15:59:54.750Z,11.86
2023-11-15T16:02:21.592Z,11.82
2023-11-15T16:04:48.526Z,11.77
2023-11-15T16:07:15.628Z,11.78
2023-11-15T16:09:42.679Z,11.84
2023-11-15T16:12:09.853Z,11.82
2023-11-15T16:14:37.035Z,11.91
2023-11-15T16:17:04.151Z,11.70
2023-11-15T16:19:31.650Z,11.74
2023-11-15T16:21:58.736Z,11.74
2023-11-15T16:24:26.097Z,11.77
2023-11-15T16:26:53.007Z,11.73
2023-11-15T16:29:20.666Z,11.62
2023-11-15T16:31:48.138Z,11.68
2023-11-15T16:34:16.485Z,11.66
2023-11-15T16:36:44.895Z,11.58
2023-11-15T16:39:12.557Z,11.62
2023-11-15T16:41:51.796Z,11.57
2023-11-15T16:44:20.336Z,11.52
2023-11-15T16:46:48.681Z,11.50
2023-11-15T16:49:17.488Z,11.33
2023-11-15T16:51:46.777Z,11.33
2023-11-15T16:54:17.092Z,11.42
2023-11-15T16:56:47.818Z,11.43
2023-11-15T16:59:18.007Z,11.45
2023-11-15T17:01:45.600Z,11.39
2023-11-15T17:04:14.684Z,11.36
2023-11-15T17:06:42.486Z,11.34
2023-11-15T17:09:11.537Z,11.38
2023-11-15T17:11:39.948Z,11.27
2023-11-15T17:14:08.296Z,11.22
2023-11-15T17:16:36.628Z,11.25
2023-11-15T17:19:03.781Z,11.30
2023-11-15T17:21:31.136Z,11.36
2023-11-15T17:23:58.823Z,11.41
2023-11-15T17:26:27.863Z,11.29
2023-11-15T17:28:55.064Z,11.42
2023-11-15T17:31:25.872Z,11.36
2023-11-15T17:33:53.237Z,11.52
2023-11-15T17:36:21.068Z,11.51
2023-11-15T17:38:47.911Z,11.50
2023-11-15T17:41:18.499Z,11.61
2023-11-15T17:43:45.502Z,11.54
2023-11-15T17:46:14.611Z,11.50
2023-11-15T17:48:43.712Z,11.54
2023-11-15T17:51:11.676Z,11.56
2023-11-15T17:53:38.706Z,11.45
2023-11-15T17:56:06.249Z,11.50
2023-11-15T17:58:36.376Z,11.53
2023-11-15T18:01:06.766Z,11.57
2023-11-15T18:03:40.315Z,11.60
2023-11-15T18:06:12.732Z,11.60
2023-11-15T18:08:40.768Z,11.68
2023-11-15T18:11:10.754Z,11.64
2023-11-15T18:13:39.265Z,11.64
2023-11-15T18:16:12.440Z,11.67
2023-11-15T18:18:40.220Z,11.65
2023-11-15T18:21:09.047Z,11.68
2023-11-15T18:23:37.317Z,11.65
2023-11-15T18:26:05.687Z,11.62
2023-11-15T18:28:33.093Z,11.62
2023-11-15T18:31:14.758Z,11.62
2023-11-15T18:33:44.694Z,11.59
2023-11-15T18:36:13.714Z,11.60
2023-11-15T18:38:52.323Z,11.55
2023-11-15T18:41:20.495Z,11.62
2023-11-15T18:43:50.725Z,11.55
2023-11-15T18:46:18.404Z,11.62
2023-11-15T18:48:49.134Z,11.54
2023-11-15T18:51:24.046Z,11.61
2023-11-15T18:53:51.635Z,11.57
2023-11-15T18:56:22.502Z,11.58
2023-11-15T18:58:51.901Z,11.68
2023-11-15T19:01:32.540Z,11.62
2023-11-15T19:04:02.583Z,11.54
2023-11-15T19:06:34.101Z,11.48
2023-11-15T19:09:07.156Z,11.47
2023-11-15T19:11:38.933Z,11.63
2023-11-15T19:14:08.710Z,11.63
2023-11-15T19:16:36.206Z,11.62
2023-11-15T19:19:03.602Z,11.66
2023-11-15T19:21:30.889Z,11.62
2023-11-15T19:24:01.594Z,11.54
2023-11-15T19:26:29.977Z,11.47
2023-11-15T19:28:57.025Z,11.37
2023-11-15T19:31:25.486Z,11.34
2023-11-15T19:33:55.499Z,11.31
2023-11-15T19:36:23.034Z,11.25
2023-11-15T19:38:49.985Z,11.25
2023-11-15T19:41:20.561Z,11.30
2023-11-15T19:43:47.736Z,11.41
2023-11-15T19:46:21.085Z,11.44
2023-11-15T19:48:48.948Z,11.42
2023-11-15T19:51:36.939Z,11.41
2023-11-15T19:54:09.655Z,11.42
2023-11-15T19:56:38.413Z,11.37
2023-11-15T19:59:06.272Z,11.38
2023-11-15T20:01:33.327Z,11.48
2023-11-15T20:04:06.590Z,11.47
2023-11-15T20:06:34.033Z,11.43
2023-11-15T20:09:01.302Z,11.38
2023-11-15T20:11:30.622Z,11.40
2023-11-15T20:13:58.582Z,11.44
2023-11-15T20:16:26.789Z,11.43
2023-11-15T20:18:57.536Z,11.41
2023-11-15T20:21:24.808Z,11.48
2023-11-15T20:23:53.897Z,11.54
2023-11-15T20:26:22.375Z,11.46
2023-11-15T20:28:53.209Z,11.46
2023-11-15T20:31:22.665Z,11.45
2023-11-15T20:33:53.734Z,11.42
2023-11-15T20:36:21.271Z,11.26
2023-11-15T20:38:48.413Z,11.27
2023-11-15T20:41:16.205Z,11.22
2023-11-15T20:43:43.342Z,11.30
2023-11-15T20:46:17.645Z,11.36
2023-11-15T20:48:47.789Z,11.20
2023-11-15T20:51:15.842Z,11.28
2023-11-15T20:53:43.001Z,11.26
2023-11-15T20:56:10.156Z,11.17
2023-11-15T20:58:39.122Z,11.22
2023-11-15T21:01:07.769Z,11.24
2023-11-15T21:03:36.105Z,11.16
2023-11-15T21:06:05.226Z,11.27
2023-11-15T21:08:33.445Z,11.25
2023-11-15T21:11:02.975Z,11.30
2023-11-15T21:13:30.055Z,11.35
2023-11-15T21:15:57.064Z,11.11
2023-11-15T21:18:26.661Z,11.12
2023-11-15T21:20:53.501Z,11.23
2023-11-15T21:23:20.595Z,11.25
2023-11-15T21:25:47.437Z,11.30
2023-11-15T21:28:14.346Z,11.27
2023-11-15T21:30:41.233Z,11.30
2023-11-15T21:33:11.128Z,11.09
2023-11-15T21:35:41.208Z,11.16
2023-11-15T21:38:08.978Z,11.35
2023-11-15T21:40:36.473Z,11.20
2023-11-15T21:43:04.540Z,11.30
2023-11-15T21:45:31.492Z,11.25
2023-11-15T21:47:58.470Z,11.30
2023-11-15T21:50:25.751Z,11.18
2023-11-15T21:52:54.747Z,11.13
2023-11-15T21:55:21.726Z,11.22
2023-11-15T21:57:48.899Z,11.18
2023-11-15T22:00:17.287Z,11.15
2023-11-15T22:02:44.520Z,11.39
2023-11-15T22:05:11.850Z,11.14
2023-11-15T22:07:42.403Z,10.96
2023-11-15T22:10:10.845Z,11.33
2023-11-15T22:12:37.801Z,11.12
2023-11-15T22:15:05.165Z,11.24
2023-11-15T22:17:33.632Z,11.19
2023-11-15T22:20:00.534Z,11.03
2023-11-15T22:22:27.306Z,11.18
2023-11-15T22:24:54.175Z,11.21
2023-11-15T22:27:21.064Z,11.36
2023-11-15T22:29:48.059Z,11.44
2023-11-15T22:32:14.926Z,11.44
2023-11-15T22:34:41.994Z,11.45
2023-11-15T22:37:09.881Z,11.47
2023-11-15T22:39:36.861Z,11.41
2023-11-15T22:42:04.616Z,11.41
2023-11-15T22:44:31.468Z,11.25
2023-11-15T22:46:58.207Z,11.20
2023-11-15T22:49:25.331Z,11.21
2023-11-15T22:51:52.386Z,11.10
2023-11-15T22:54:19.682Z,11.12
2023-11-15T22:56:47.232Z,11.10
2023-11-15T22:59:14.204Z,11.16
2023-11-15T23:01:41.319Z,11.12
2023-11-15T23:04:09.178Z,11.11
2023-11-15T23:06:36.431Z,11.03
2023-11-15T23:09:03.381Z,10.99
2023-11-15T23:11:31.659Z,10.91
2023-11-15T23:13:58.474Z,10.91
2023-11-15T23:16:25.867Z,11.07
2023-11-15T23:18:52.972Z,11.13
2023-11-15T23:21:19.932Z,11.11
2023-11-15T23:23:46.978Z,10.99
2023-11-15T23:26:13.821Z,10.90
2023-11-15T23:28:41.003Z,10.96
2023-11-15T23:31:08.201Z,10.99
2023-11-15T23:33:36.666Z,11.07
2023-11-15T23:36:04.900Z,11.00
2023-11-15T23:38:31.814Z,10.90
2023-11-15T23:40:59.293Z,11.08
2023-11-15T23:43:29.671Z,10.92
2023-11-15T23:45:58.527Z,10.78
2023-11-15T23:48:25.809Z,10.93
2023-11-15T23:50:54.950Z,11.05
2023-11-15T23:53:22.830Z,11.07
2023-11-15T23:55:51.106Z,11.01
2023-11-15T23:58:19.894Z,11.10
